Raleigh, NC

4:57 PM EDT on September 01, 2015 (GMT -0400)
Winchester - NE Raleigh | | Change Station
CLOSE
Current Station
Personal Weather Station
Location: Raleigh, NC
Elevation: 280 ft
Nearby Weather Stations

Elev 280 ft 35.84 °N, 78.56 °W | Updated 1 minute ago

Partly Cloudy
Partly Cloudy
90.1 °F
Feels Like 94 °F
N
3.0
Wind Variable Wind from East
Gusts 5.0 mph

Today
High -- | Low -- °F
--% Chance of Precip.
Yesterday
High -- | Low -- °F
Precip. -- in
6:45 AM 7:41 PM
Waning Gibbous, 86% visible
Pressure 30.04 in
Visibility 10.0 miles
Clouds Scattered Clouds 5500 ft
Mostly Cloudy 25000 ft
Heat Index 94 °F
Dew Point 68 °F
Humidity 49%
Rainfall 0.00 in
Snow Depth Not available.
UV 2 out of 12
Pollen 8.00 out of 12
Air Quality Not available.
Flu Activity Not available.
METAR KRDU 012051Z 06003KT 10SM SCT055 BKN250 32/18 A3005 RMK AO2 SLP172 T03170183 56009 $
Pressure 30.04 in
Visibility 10.0 miles
Clouds Scattered Clouds 5500 ft
Mostly Cloudy 25000 ft
Heat Index 94 °F
Dew Point 68 °F
Humidity 49%
Rainfall 0.00 in
Snow Depth Not available.
UV 2 out of 12
Pollen 8.00 out of 12
Air Quality Not available.
Flu Activity Not available.
METAR KRDU 012051Z 06003KT 10SM SCT055 BKN250 32/18 A3005 RMK AO2 SLP172 T03170183 56009 $

10-Day Weather Forecast

×

Almanac

Astronomy

Sep. 01, 2015 Rise Set
Actual Time
Civil Twilight
Nautical Twilight
Astronomical Twilight
Moon
Length of Visible Light
Length of Day
Tomorrow will be .
, % of the Moon is Illuminated

Today's Extremes

State Highs State Lows

Community

WunderPhotos

Upload Photos

1,851,608 photos uploaded!

WunderBlogs® & News

Nearby

Air Quality

  Air Quality AQ Index Pollutant
Not available.

Snow Depth

Station Depth Elevation

Earthquake Activity

City Distance Mag. Time & Date
Minimum magnitude displayed is 2.5.

Coastal Water Temperatures

Place Temperature

Stations

Nearby Weather Stations

Station Location Temp. Windchill Dew Point Humidity Wind Precip. Elev Updated Type